Weather at Simpang Airport

Public forecast

Using degrees Celsius for public forecast. Weather courtesy of forecast.io.

Closest aviation weather report (METAR) to Simpang Airport

Report is more than 6 hours old.

Closest report is Sultan Abdul Aziz Shah International Airport, 9.3 nm (17.2 km) W. Retrieved 2022/09/17 19:00 UTC (15 days ago):

WMSA 171900Z VRB02KT 9999 FEW017CB 26/23 Q1010

Closest aviation forecast (TAF) to Simpang Airport

Forecast is more than 12 hours old.

Closest forecast is Sultan Abdul Aziz Shah International Airport, 9.3 nm (17.2 km) W. Retrieved 2022/09/17 18:09 UTC (15 days ago):

TAF WMSA 171700Z 1718/1818 VRB02KT 9999 FEW026 PROB30 TEMPO 1720/1800 5000 TSRA FEW008 FEW017CB